Terminal Aerodrome Forecast
Issued by NWS Brownsville, TX

Home | Current Version | Previous Version | Text Only | Print | Product List | Glossary On
Versions: 1 2 3 4 5 6 7 8 9 10 11 12 13 14 15 16 17 18 19
000
FTUS44 KBRO 191700
TAFHRL
TAF
KHRL 191724Z 1918/2018 13011KT P6SM BKN025 OVC200
     FM192000 13014KT P6SM BKN035 OVC200
     FM200200 13008KT P6SM BKN025 OVC200
     FM200700 14008KT P6SM BKN015 OVC200
     FM201600 14014G20KT P6SM BKN025 OVC200=

USA.gov is the U.S. government's official web portal to all federal, state and local government web resources and services.